createdAt,value
2023-02-05T00:01:11.116Z,64.39
2023-02-05T00:03:39.586Z,63.64
2023-02-05T00:06:07.927Z,64.11
2023-02-05T00:08:36.871Z,63.95
2023-02-05T00:11:09.507Z,63.86
2023-02-05T00:13:45.378Z,63.62
2023-02-05T00:16:16.390Z,64.22
2023-02-05T00:18:45.472Z,64.15
2023-02-05T00:21:16.744Z,64.11
2023-02-05T00:23:45.655Z,64.01
2023-02-05T00:26:15.188Z,63.87
2023-02-05T00:31:36.133Z,63.75
2023-02-05T00:34:05.750Z,63.88
2023-02-05T00:36:35.115Z,63.51
2023-02-05T00:39:03.820Z,64.20
2023-02-05T00:41:33.238Z,63.89
2023-02-05T00:44:02.791Z,63.54
2023-02-05T00:46:36.126Z,63.98
2023-02-05T00:49:05.052Z,64.18
2023-02-05T00:51:33.661Z,63.99
2023-02-05T00:54:02.334Z,64.02
2023-02-05T00:56:31.108Z,63.85
2023-02-05T00:59:00.134Z,64.05
2023-02-05T01:01:29.962Z,64.27
2023-02-05T01:03:58.652Z,64.18
2023-02-05T01:06:27.074Z,64.19
2023-02-05T01:08:57.600Z,64.40
2023-02-05T01:11:29.845Z,63.67
2023-02-05T01:13:58.344Z,64.00
2023-02-05T01:16:26.549Z,63.95
2023-02-05T01:19:05.333Z,63.81
2023-02-05T01:21:33.741Z,63.68
2023-02-05T01:24:02.977Z,63.75
2023-02-05T01:29:23.828Z,63.51
2023-02-05T01:31:53.211Z,63.81
2023-02-05T01:34:26.743Z,64.02
2023-02-05T01:36:55.181Z,63.86
2023-02-05T01:39:23.944Z,63.58
2023-02-05T01:41:55.792Z,63.49
2023-02-05T01:44:26.294Z,63.72
2023-02-05T01:46:56.994Z,63.72
2023-02-05T01:49:35.423Z,63.66
2023-02-05T01:52:09.108Z,63.32
2023-02-05T01:54:43.105Z,63.42
2023-02-05T01:57:21.422Z,63.71
2023-02-05T01:59:51.800Z,63.15
2023-02-05T02:02:21.075Z,63.60
2023-02-05T02:04:56.154Z,63.59
2023-02-05T02:10:20.283Z,63.18
2023-02-05T02:12:51.986Z,63.46
2023-02-05T02:15:24.159Z,63.24
2023-02-05T02:20:54.028Z,63.29
2023-02-05T02:23:39.953Z,63.10
2023-02-05T02:26:45.006Z,62.77
2023-02-05T02:29:23.757Z,62.72
2023-02-05T02:31:58.917Z,62.47
2023-02-05T02:34:33.390Z,62.25
2023-02-05T02:37:08.714Z,61.69
2023-02-05T02:42:33.688Z,62.07
2023-02-05T02:45:12.665Z,61.17
2023-02-05T02:48:12.709Z,61.37
2023-02-05T02:54:53.998Z,60.70
2023-02-05T03:15:17.979Z,60.47
2023-02-05T03:40:47.467Z,59.58
2023-02-05T03:43:30.733Z,59.63
2023-02-05T03:49:07.463Z,59.59
2023-02-05T03:51:41.599Z,59.18
2023-02-05T03:54:17.674Z,58.69
2023-02-05T03:56:56.941Z,58.79
2023-02-05T03:59:27.300Z,59.21
2023-02-05T04:01:56.013Z,58.93
2023-02-05T04:04:24.454Z,59.01
2023-02-05T04:06:55.022Z,58.68
2023-02-05T04:09:22.691Z,59.34
2023-02-05T04:11:50.797Z,59.22
2023-02-05T04:14:18.598Z,58.90
2023-02-05T04:16:47.692Z,58.79
2023-02-05T04:19:15.834Z,59.20
2023-02-05T04:21:43.530Z,58.71
2023-02-05T04:24:11.231Z,59.19
2023-02-05T04:26:39.461Z,59.30
2023-02-05T04:29:07.270Z,58.99
2023-02-05T04:31:35.101Z,59.23
2023-02-05T04:34:05.381Z,59.21
2023-02-05T04:36:33.067Z,59.46
2023-02-05T04:39:00.741Z,59.53
2023-02-05T04:41:29.466Z,59.30
2023-02-05T04:43:57.195Z,59.37
2023-02-05T04:46:24.875Z,59.33
2023-02-05T04:48:53.188Z,59.66
2023-02-05T04:51:22.270Z,59.63
2023-02-05T04:53:50.004Z,59.52
2023-02-05T04:56:19.177Z,59.74
2023-02-05T04:58:47.347Z,60.11
2023-02-05T05:01:16.910Z,59.99
2023-02-05T05:03:45.767Z,60.61
2023-02-05T05:06:13.858Z,61.20
2023-02-05T05:08:43.330Z,60.68
2023-02-05T05:11:13.323Z,60.66
2023-02-05T05:13:41.285Z,61.34
2023-02-05T05:16:10.727Z,60.59
2023-02-05T05:18:39.961Z,61.60
2023-02-05T05:21:08.545Z,61.75
2023-02-05T05:23:37.014Z,62.12
2023-02-05T05:26:08.308Z,62.37
2023-02-05T05:28:36.952Z,62.76
2023-02-05T05:31:10.523Z,62.61
2023-02-05T05:33:38.727Z,62.71
2023-02-05T05:36:08.141Z,63.15
2023-02-05T05:38:36.661Z,62.98
2023-02-05T05:41:22.378Z,63.06
2023-02-05T05:43:53.278Z,63.11
2023-02-05T05:46:23.713Z,63.58
2023-02-05T05:48:52.239Z,63.67
2023-02-05T05:51:21.644Z,63.95
2023-02-05T05:53:49.914Z,63.71
2023-02-05T05:56:18.523Z,63.88
2023-02-05T05:58:47.663Z,64.08
2023-02-05T06:01:19.624Z,63.96
2023-02-05T06:03:47.395Z,64.20
2023-02-05T06:06:15.709Z,64.54
2023-02-05T06:08:43.511Z,64.86
2023-02-05T06:11:11.344Z,64.45
2023-02-05T06:13:39.606Z,64.72
2023-02-05T06:16:08.192Z,64.87
2023-02-05T06:18:37.257Z,65.16
2023-02-05T06:21:06.399Z,65.15
2023-02-05T06:23:34.288Z,65.19
2023-02-05T06:26:02.069Z,65.24
2023-02-05T06:28:30.309Z,65.49
2023-02-05T06:30:58.185Z,65.19
2023-02-05T06:33:26.002Z,65.75
2023-02-05T06:35:55.751Z,66.04
2023-02-05T06:38:23.591Z,65.44
2023-02-05T06:40:51.335Z,65.64
2023-02-05T06:43:19.501Z,65.85
2023-02-05T06:45:47.201Z,65.92
2023-02-05T06:48:14.971Z,66.59
2023-02-05T06:50:43.201Z,66.48
2023-02-05T06:53:12.315Z,66.20
2023-02-05T06:55:40.204Z,65.74
2023-02-05T06:58:08.891Z,66.02
2023-02-05T07:00:36.707Z,66.05
2023-02-05T07:03:04.817Z,65.79
2023-02-05T07:08:24.401Z,65.58
2023-02-05T07:10:52.664Z,65.54
2023-02-05T07:13:20.886Z,65.52
2023-02-05T07:15:49.739Z,65.64
2023-02-05T07:18:17.574Z,65.73
2023-02-05T07:20:45.865Z,65.28
2023-02-05T07:23:13.537Z,65.19
2023-02-05T07:25:42.685Z,64.90
2023-02-05T07:28:11.000Z,64.95
2023-02-05T07:30:38.943Z,64.53
2023-02-05T07:33:06.683Z,63.77
2023-02-05T07:35:38.618Z,64.61
2023-02-05T07:38:06.964Z,63.56
2023-02-05T07:40:34.674Z,63.29
2023-02-05T07:43:04.268Z,63.31
2023-02-05T07:45:32.268Z,62.80
2023-02-05T07:48:00.149Z,62.12
2023-02-05T07:50:28.568Z,61.76
2023-02-05T07:52:56.383Z,61.58
2023-02-05T07:55:24.155Z,61.01
2023-02-05T07:57:52.470Z,61.66
2023-02-05T08:00:22.033Z,61.58
2023-02-05T08:02:49.772Z,61.21
2023-02-05T08:05:18.056Z,61.25
2023-02-05T08:07:46.213Z,61.27
2023-02-05T08:10:14.919Z,61.55
2023-02-05T08:12:42.961Z,61.76
2023-02-05T08:15:11.447Z,61.89
2023-02-05T08:17:40.648Z,61.55
2023-02-05T08:20:09.994Z,61.75
2023-02-05T08:22:39.523Z,60.82
2023-02-05T08:25:09.288Z,60.88
2023-02-05T08:27:39.006Z,60.72
2023-02-05T08:30:08.181Z,61.26
2023-02-05T08:32:36.056Z,61.10
2023-02-05T08:35:06.715Z,61.15
2023-02-05T08:37:34.536Z,61.26
2023-02-05T08:40:02.472Z,60.43
2023-02-05T08:42:30.806Z,60.61
2023-02-05T08:44:59.438Z,60.33
2023-02-05T08:47:27.378Z,60.49
2023-02-05T08:49:55.499Z,60.26
2023-02-05T08:52:24.778Z,60.57
2023-02-05T08:54:52.597Z,60.49
2023-02-05T08:57:20.675Z,60.38
2023-02-05T08:59:48.433Z,59.89
2023-02-05T09:02:16.463Z,60.00
2023-02-05T09:07:34.513Z,59.96
2023-02-05T09:10:02.986Z,59.47
2023-02-05T09:12:30.673Z,60.25
2023-02-05T09:14:58.530Z,59.78
2023-02-05T09:17:27.014Z,60.16
2023-02-05T09:19:54.873Z,59.59
2023-02-05T09:22:22.565Z,59.79
2023-02-05T09:24:52.428Z,60.32
2023-02-05T09:27:20.197Z,59.97
2023-02-05T09:29:47.935Z,60.05
2023-02-05T09:32:16.194Z,59.99
2023-02-05T09:34:44.011Z,59.68
2023-02-05T09:37:11.698Z,59.77
2023-02-05T09:42:37.855Z,61.00
2023-02-05T09:45:19.739Z,60.91
2023-02-05T09:48:00.780Z,61.69
2023-02-05T09:50:30.554Z,61.73
2023-02-05T09:53:02.649Z,61.74
2023-02-05T09:55:32.970Z,62.39
2023-02-05T09:58:09.137Z,61.87
2023-02-05T10:00:44.727Z,61.47
2023-02-05T10:03:23.051Z,61.43
2023-02-05T10:06:08.723Z,61.35
2023-02-05T10:08:47.647Z,60.57
2023-02-05T10:11:24.165Z,60.28
2023-02-05T10:14:05.472Z,59.62
2023-02-05T10:20:09.650Z,59.43
2023-02-05T10:22:47.779Z,60.43
2023-02-05T10:25:45.974Z,59.61
2023-02-05T10:28:30.409Z,59.15
2023-02-05T10:31:08.803Z,58.52
2023-02-05T10:33:47.750Z,59.17
2023-02-05T10:36:18.012Z,58.35
2023-02-05T10:38:47.481Z,58.17
2023-02-05T10:41:21.749Z,58.62
2023-02-05T10:43:54.474Z,58.15
2023-02-05T10:46:31.386Z,57.61
2023-02-05T10:49:05.727Z,57.48
2023-02-05T10:51:39.634Z,57.08
2023-02-05T10:54:19.494Z,57.53
2023-02-05T10:56:49.399Z,56.14
2023-02-05T10:59:23.596Z,56.41
2023-02-05T11:01:53.763Z,56.62
2023-02-05T11:04:32.660Z,55.90
2023-02-05T11:07:02.129Z,55.58
2023-02-05T11:09:33.217Z,55.16
2023-02-05T11:12:03.137Z,54.18
2023-02-05T11:14:35.372Z,54.03
2023-02-05T11:17:10.842Z,53.33
2023-02-05T11:19:39.472Z,52.39
2023-02-05T11:22:07.174Z,53.08
2023-02-05T11:24:39.826Z,53.38
2023-02-05T11:27:29.955Z,53.64
2023-02-05T11:30:01.405Z,52.81
2023-02-05T11:32:39.526Z,53.29
2023-02-05T11:35:19.705Z,52.96
2023-02-05T11:37:49.958Z,52.81
2023-02-05T11:40:22.926Z,53.03
2023-02-05T11:43:05.641Z,52.43
2023-02-05T11:45:36.265Z,52.51
2023-02-05T11:48:21.972Z,53.38
2023-02-05T11:50:50.462Z,53.13
2023-02-05T11:53:20.771Z,53.36
2023-02-05T11:55:55.261Z,53.23
2023-02-05T11:58:36.119Z,53.18
2023-02-05T12:01:07.946Z,53.46
2023-02-05T12:03:37.167Z,52.67
2023-02-05T12:06:16.010Z,52.38
2023-02-05T12:08:49.201Z,52.25
2023-02-05T12:11:56.025Z,52.02
2023-02-05T12:14:33.969Z,52.83
2023-02-05T12:17:17.694Z,52.81
2023-02-05T12:19:57.636Z,52.80
2023-02-05T12:22:56.586Z,52.48
2023-02-05T12:25:29.837Z,52.50
2023-02-05T12:28:10.348Z,52.60
2023-02-05T12:30:51.253Z,52.12
2023-02-05T12:33:35.690Z,51.18
2023-02-05T12:36:17.723Z,51.35
2023-02-05T12:38:55.110Z,51.52
2023-02-05T12:41:33.200Z,51.19
2023-02-05T12:44:13.181Z,52.03
2023-02-05T12:46:56.845Z,51.82
2023-02-05T12:49:41.772Z,50.20
2023-02-05T12:52:24.511Z,49.82
2023-02-05T12:55:02.702Z,49.81
2023-02-05T12:57:38.251Z,50.21
2023-02-05T13:00:13.647Z,49.69
2023-02-05T13:02:50.960Z,49.17
2023-02-05T13:05:22.896Z,49.84
2023-02-05T13:07:58.303Z,50.29
2023-02-05T13:10:35.540Z,50.71
2023-02-05T13:13:07.469Z,50.62
2023-02-05T13:15:41.120Z,50.30
2023-02-05T13:18:17.755Z,50.85
2023-02-05T13:21:04.698Z,50.37
2023-02-05T13:23:54.294Z,50.50
2023-02-05T13:26:47.107Z,49.93
2023-02-05T13:29:17.199Z,50.14
2023-02-05T13:31:49.732Z,49.59
2023-02-05T13:34:18.636Z,49.08
2023-02-05T13:37:09.316Z,48.49
2023-02-05T13:39:53.776Z,47.42
2023-02-05T13:42:47.229Z,47.94
2023-02-05T13:45:50.394Z,47.83
2023-02-05T13:48:41.479Z,48.37
2023-02-05T13:51:38.140Z,47.78
2023-02-05T13:54:46.020Z,48.13
2023-02-05T13:57:38.112Z,48.07
2023-02-05T14:00:12.603Z,48.78
2023-02-05T14:02:44.253Z,49.09
2023-02-05T14:05:14.860Z,49.28
2023-02-05T14:07:46.635Z,49.50
2023-02-05T14:10:27.673Z,49.12
2023-02-05T14:13:12.053Z,48.69
2023-02-05T14:15:43.423Z,49.02
2023-02-05T14:18:13.314Z,48.67
2023-02-05T14:20:42.937Z,48.49
2023-02-05T14:23:14.878Z,48.22
2023-02-05T14:26:11.639Z,47.93
2023-02-05T14:28:52.429Z,48.51
2023-02-05T14:35:02.053Z,48.80
2023-02-05T14:37:40.974Z,48.70
2023-02-05T14:40:23.905Z,48.46
2023-02-05T14:43:08.421Z,49.78
2023-02-05T14:45:44.859Z,49.00
2023-02-05T14:48:21.714Z,49.16
2023-02-05T14:51:02.249Z,49.72
2023-02-05T14:53:31.144Z,49.67
2023-02-05T14:55:59.991Z,49.58
2023-02-05T14:58:32.530Z,49.30
2023-02-05T15:01:42.620Z,49.12
2023-02-05T15:04:24.792Z,49.33
2023-02-05T15:06:54.395Z,48.57
2023-02-05T15:09:26.431Z,48.51
2023-02-05T15:12:16.966Z,48.96
2023-02-05T15:14:54.149Z,49.17
2023-02-05T15:17:58.151Z,48.95
2023-02-05T15:20:32.703Z,49.17
2023-02-05T15:23:17.801Z,49.09
2023-02-05T15:25:52.148Z,49.29
2023-02-05T15:28:27.114Z,49.63
2023-02-05T15:31:05.062Z,49.28
2023-02-05T15:33:44.063Z,49.59
2023-02-05T15:36:21.482Z,49.88
2023-02-05T15:38:59.530Z,49.72
2023-02-05T15:41:28.128Z,49.85
2023-02-05T15:44:02.749Z,49.86
2023-02-05T15:46:35.472Z,49.93
2023-02-05T15:49:06.768Z,49.30
2023-02-05T15:51:38.310Z,48.90
2023-02-05T15:54:07.436Z,48.82
2023-02-05T15:56:38.964Z,49.08
2023-02-05T15:59:13.528Z,49.19
2023-02-05T16:01:47.226Z,49.42
2023-02-05T16:04:21.571Z,49.71
2023-02-05T16:06:50.279Z,49.10
2023-02-05T16:09:19.569Z,48.20
2023-02-05T16:11:48.388Z,49.08
2023-02-05T16:14:19.832Z,48.65
2023-02-05T16:17:03.367Z,48.70
2023-02-05T16:19:37.171Z,48.94
2023-02-05T16:22:18.603Z,48.45
2023-02-05T16:24:50.399Z,48.73
2023-02-05T16:27:23.076Z,48.70
2023-02-05T16:29:56.159Z,49.13
2023-02-05T16:32:31.213Z,49.24
2023-02-05T16:35:05.397Z,49.71
2023-02-05T16:37:33.824Z,49.85
2023-02-05T16:40:06.281Z,50.25
2023-02-05T16:42:38.419Z,50.06
2023-02-05T16:45:20.121Z,49.86
2023-02-05T16:48:23.333Z,49.64
2023-02-05T16:50:57.537Z,48.96
2023-02-05T16:53:28.298Z,49.09
2023-02-05T16:55:59.858Z,49.68
2023-02-05T16:58:36.076Z,49.87
2023-02-05T17:01:06.311Z,49.28
2023-02-05T17:03:39.088Z,49.26
2023-02-05T17:06:15.437Z,49.84
2023-02-05T17:08:48.278Z,50.24
2023-02-05T17:11:38.339Z,50.10
2023-02-05T17:14:27.963Z,51.04
2023-02-05T17:16:58.056Z,50.56
2023-02-05T17:19:28.973Z,50.54
2023-02-05T17:22:22.985Z,50.47
2023-02-05T17:24:52.273Z,50.37
2023-02-05T17:27:29.111Z,50.39
2023-02-05T17:30:00.327Z,50.36
2023-02-05T17:32:30.667Z,50.28
2023-02-05T17:34:59.997Z,50.25
2023-02-05T17:37:29.511Z,50.17
2023-02-05T17:39:58.336Z,49.99
2023-02-05T17:42:26.978Z,49.98
2023-02-05T17:44:56.052Z,50.30
2023-02-05T17:47:24.680Z,50.00
2023-02-05T17:49:52.781Z,49.94
2023-02-05T17:52:20.840Z,50.05
2023-02-05T17:54:50.989Z,50.22
2023-02-05T17:57:21.574Z,50.05
2023-02-05T17:59:50.048Z,50.10
2023-02-05T18:02:18.996Z,50.46
2023-02-05T18:04:47.381Z,51.10
2023-02-05T18:07:23.311Z,50.68
2023-02-05T18:09:52.891Z,51.29
2023-02-05T18:12:21.072Z,51.21
2023-02-05T18:14:49.771Z,51.10
2023-02-05T18:17:18.042Z,51.64
2023-02-05T18:19:46.141Z,51.53
2023-02-05T18:22:14.954Z,51.50
2023-02-05T18:24:43.248Z,51.70
2023-02-05T18:27:13.400Z,52.00
2023-02-05T18:29:43.777Z,52.16
2023-02-05T18:32:12.137Z,51.61
2023-02-05T18:34:40.248Z,52.02
2023-02-05T18:37:08.701Z,52.11
2023-02-05T18:39:36.730Z,52.42
2023-02-05T18:42:04.994Z,52.00
2023-02-05T18:44:35.978Z,52.38
2023-02-05T18:47:04.980Z,51.96
2023-02-05T18:49:33.252Z,52.46
2023-02-05T18:52:02.188Z,52.77
2023-02-05T18:54:30.422Z,53.13
2023-02-05T18:56:58.382Z,53.15
2023-02-05T18:59:26.692Z,52.51
2023-02-05T19:01:56.828Z,52.83
2023-02-05T19:04:25.732Z,53.47
2023-02-05T19:06:55.162Z,53.36
2023-02-05T19:09:25.769Z,53.29
2023-02-05T19:11:55.786Z,53.67
2023-02-05T19:14:25.606Z,54.00
2023-02-05T19:16:55.566Z,54.09
2023-02-05T19:19:25.954Z,53.85
2023-02-05T19:21:54.823Z,54.24
2023-02-05T19:24:23.074Z,54.87
2023-02-05T19:26:52.119Z,54.53
2023-02-05T19:29:21.532Z,55.08
2023-02-05T19:31:50.462Z,55.58
2023-02-05T19:34:22.497Z,55.19
2023-02-05T19:36:50.862Z,55.58
2023-02-05T19:39:18.987Z,55.67
2023-02-05T19:41:48.511Z,55.55
2023-02-05T19:44:16.627Z,55.18
2023-02-05T19:46:49.001Z,55.13
2023-02-05T19:49:20.240Z,56.08
2023-02-05T19:51:50.181Z,56.18
2023-02-05T19:54:21.609Z,56.40
2023-02-05T19:56:51.869Z,56.41
2023-02-05T19:59:21.737Z,56.20
2023-02-05T20:01:53.356Z,56.14
2023-02-05T20:04:30.371Z,56.51
2023-02-05T20:07:02.457Z,56.09
2023-02-05T20:09:32.253Z,56.11
2023-02-05T20:12:00.176Z,56.49
2023-02-05T20:14:30.151Z,56.89
2023-02-05T20:16:58.398Z,57.02
2023-02-05T20:19:47.019Z,56.46
2023-02-05T20:22:15.365Z,56.25
2023-02-05T20:24:43.552Z,56.38
2023-02-05T20:27:11.504Z,57.20
2023-02-05T20:32:38.930Z,57.12
2023-02-05T20:35:09.501Z,57.33
2023-02-05T20:37:37.781Z,57.30
2023-02-05T20:40:06.148Z,57.24
2023-02-05T20:42:34.504Z,57.26
2023-02-05T20:45:02.768Z,57.11
2023-02-05T20:47:31.440Z,57.75
2023-02-05T20:49:59.610Z,57.71
2023-02-05T20:52:35.567Z,57.88
2023-02-05T20:55:05.149Z,57.53
2023-02-05T20:57:33.130Z,57.47
2023-02-05T21:00:01.772Z,57.27
2023-02-05T21:02:30.469Z,57.36
2023-02-05T21:05:01.171Z,57.46
2023-02-05T21:07:31.469Z,57.63
2023-02-05T21:10:02.069Z,57.80
2023-02-05T21:15:18.316Z,57.46
2023-02-05T21:17:46.779Z,57.62
2023-02-05T21:20:14.777Z,57.62
2023-02-05T21:23:27.017Z,57.54
2023-02-05T21:25:56.721Z,57.96
2023-02-05T21:28:26.822Z,58.39
2023-02-05T21:31:04.314Z,57.88
2023-02-05T21:33:35.355Z,58.08
2023-02-05T21:36:05.267Z,57.97
2023-02-05T21:38:40.069Z,58.94
2023-02-05T21:47:07.120Z,59.48
2023-02-05T21:49:35.002Z,59.64
2023-02-05T21:52:02.753Z,59.28
2023-02-05T21:54:30.529Z,59.39
2023-02-05T21:56:58.664Z,59.20
2023-02-05T21:59:28.058Z,59.75
2023-02-05T22:01:55.940Z,59.46
2023-02-05T22:04:23.949Z,60.21
2023-02-05T22:06:52.069Z,59.56
2023-02-05T22:09:20.556Z,60.02
2023-02-05T22:11:50.855Z,59.80
2023-02-05T22:14:18.595Z,59.41
2023-02-05T22:16:47.897Z,59.82
2023-02-05T22:19:16.150Z,60.21
2023-02-05T22:21:44.214Z,60.17
2023-02-05T22:24:14.875Z,60.16
2023-02-05T22:26:43.291Z,60.93
2023-02-05T22:29:15.231Z,61.47
2023-02-05T22:31:44.694Z,60.64
2023-02-05T22:34:13.975Z,60.87
2023-02-05T22:36:41.685Z,60.91
2023-02-05T22:39:09.912Z,60.86
2023-02-05T22:41:39.462Z,60.59
2023-02-05T22:44:08.908Z,60.81
2023-02-05T22:46:40.770Z,61.01
2023-02-05T22:49:08.562Z,61.32
2023-02-05T22:51:39.455Z,61.50
2023-02-05T22:54:08.820Z,61.90
2023-02-05T22:56:36.818Z,61.24
2023-02-05T22:59:04.575Z,61.85
2023-02-05T23:01:35.067Z,61.36
2023-02-05T23:04:05.627Z,61.87
2023-02-05T23:06:36.256Z,61.27
2023-02-05T23:09:07.916Z,60.82
2023-02-05T23:11:36.832Z,61.17
2023-02-05T23:14:06.422Z,62.12
2023-02-05T23:16:35.871Z,62.27
2023-02-05T23:19:06.169Z,62.12
2023-02-05T23:21:35.506Z,62.48
2023-02-05T23:24:03.603Z,62.65
2023-02-05T23:26:37.675Z,62.53
2023-02-05T23:29:05.654Z,62.85
2023-02-05T23:31:33.754Z,62.94
2023-02-05T23:34:02.770Z,62.36
2023-02-05T23:36:30.912Z,62.12
2023-02-05T23:38:58.882Z,62.58
2023-02-05T23:41:54.904Z,62.08
2023-02-05T23:44:24.335Z,62.21
2023-02-05T23:46:52.606Z,62.59
2023-02-05T23:49:22.474Z,62.54
2023-02-05T23:51:51.032Z,62.18
2023-02-05T23:54:19.050Z,62.54
2023-02-05T23:56:47.531Z,61.77
2023-02-05T23:59:15.408Z,61.66
